sensor_id;sensor_type;location;lat;lon;timestamp;P1;durP1;ratioP1;P2;durP2;ratioP2
75379;SDS011;65641;44.714;37.756;2023-02-01T00:00:37;8.15;;;6.00;;
75379;SDS011;65641;44.714;37.756;2023-02-01T00:01:40;8.18;;;6.20;;
75379;SDS011;65641;44.714;37.756;2023-02-01T00:02:43;7.82;;;6.07;;
75379;SDS011;65641;44.714;37.756;2023-02-01T00:03:46;8.60;;;4.55;;
75379;SDS011;65641;44.714;37.756;2023-02-01T00:04:49;7.53;;;5.53;;
75379;SDS011;65641;44.714;37.756;2023-02-01T00:05:55;8.05;;;4.93;;
75379;SDS011;65641;44.714;37.756;2023-02-01T00:08:03;8.68;;;5.40;;
75379;SDS011;65641;44.714;37.756;2023-02-01T00:09:07;7.85;;;5.68;;
75379;SDS011;65641;44.714;37.756;2023-02-01T00:10:10;8.48;;;5.50;;
75379;SDS011;65641;44.714;37.756;2023-02-01T00:11:13;7.60;;;5.88;;
75379;SDS011;65641;44.714;37.756;2023-02-01T00:12:17;8.15;;;4.25;;
75379;SDS011;65641;44.714;37.756;2023-02-01T00:13:20;8.27;;;6.10;;
75379;SDS011;65641;44.714;37.756;2023-02-01T00:14:23;7.90;;;4.10;;
75379;SDS011;65641;44.714;37.756;2023-02-01T00:15:28;7.88;;;5.72;;
75379;SDS011;65641;44.714;37.756;2023-02-01T00:16:35;8.60;;;5.68;;
75379;SDS011;65641;44.714;37.756;2023-02-01T00:17:39;7.88;;;6.35;;
75379;SDS011;65641;44.714;37.756;2023-02-01T00:18:43;7.72;;;5.57;;
75379;SDS011;65641;44.714;37.756;2023-02-01T00:19:46;7.45;;;5.47;;
75379;SDS011;65641;44.714;37.756;2023-02-01T00:20:51;7.72;;;5.38;;
75379;SDS011;65641;44.714;37.756;2023-02-01T00:21:54;8.07;;;5.53;;
75379;SDS011;65641;44.714;37.756;2023-02-01T00:22:57;8.13;;;5.80;;
75379;SDS011;65641;44.714;37.756;2023-02-01T00:24:04;7.65;;;4.32;;
75379;SDS011;65641;44.714;37.756;2023-02-01T00:25:08;7.82;;;5.70;;
75379;SDS011;65641;44.714;37.756;2023-02-01T00:26:32;7.85;;;5.30;;
75379;SDS011;65641;44.714;37.756;2023-02-01T00:27:35;8.90;;;6.13;;
75379;SDS011;65641;44.714;37.756;2023-02-01T00:28:38;7.70;;;5.70;;
75379;SDS011;65641;44.714;37.756;2023-02-01T00:29:41;8.43;;;5.57;;
75379;SDS011;65641;44.714;37.756;2023-02-01T00:30:44;8.25;;;5.75;;
75379;SDS011;65641;44.714;37.756;2023-02-01T00:31:49;7.18;;;4.28;;
75379;SDS011;65641;44.714;37.756;2023-02-01T00:32:54;10.05;;;7.15;;
75379;SDS011;65641;44.714;37.756;2023-02-01T00:33:57;9.35;;;5.32;;
75379;SDS011;65641;44.714;37.756;2023-02-01T00:35:02;7.50;;;5.68;;
75379;SDS011;65641;44.714;37.756;2023-02-01T00:36:06;7.65;;;5.63;;
75379;SDS011;65641;44.714;37.756;2023-02-01T00:37:18;8.63;;;6.82;;
75379;SDS011;65641;44.714;37.756;2023-02-01T00:38:22;7.78;;;5.63;;
75379;SDS011;65641;44.714;37.756;2023-02-01T00:39:25;6.95;;;4.45;;
75379;SDS011;65641;44.714;37.756;2023-02-01T00:40:28;6.82;;;4.57;;
75379;SDS011;65641;44.714;37.756;2023-02-01T00:41:31;7.63;;;5.65;;
75379;SDS011;65641;44.714;37.756;2023-02-01T00:42:35;8.02;;;4.45;;
75379;SDS011;65641;44.714;37.756;2023-02-01T00:43:38;8.63;;;5.25;;
75379;SDS011;65641;44.714;37.756;2023-02-01T00:44:41;7.93;;;5.95;;
75379;SDS011;65641;44.714;37.756;2023-02-01T00:45:45;8.77;;;4.70;;
75379;SDS011;65641;44.714;37.756;2023-02-01T00:46:51;7.72;;;5.40;;
75379;SDS011;65641;44.714;37.756;2023-02-01T00:47:55;8.43;;;6.03;;
75379;SDS011;65641;44.714;37.756;2023-02-01T00:48:58;8.43;;;5.95;;
75379;SDS011;65641;44.714;37.756;2023-02-01T00:50:01;8.38;;;5.57;;
75379;SDS011;65641;44.714;37.756;2023-02-01T00:51:08;7.65;;;6.10;;
75379;SDS011;65641;44.714;37.756;2023-02-01T00:52:16;7.97;;;5.60;;
75379;SDS011;65641;44.714;37.756;2023-02-01T00:53:19;8.77;;;5.40;;
75379;SDS011;65641;44.714;37.756;2023-02-01T00:54:22;9.00;;;5.97;;
75379;SDS011;65641;44.714;37.756;2023-02-01T00:55:27;8.77;;;5.38;;
75379;SDS011;65641;44.714;37.756;2023-02-01T00:56:30;7.18;;;5.50;;
75379;SDS011;65641;44.714;37.756;2023-02-01T00:57:34;9.25;;;6.03;;
75379;SDS011;65641;44.714;37.756;2023-02-01T00:58:37;7.55;;;5.47;;
75379;SDS011;65641;44.714;37.756;2023-02-01T00:59:41;8.40;;;5.63;;
75379;SDS011;65641;44.714;37.756;2023-02-01T01:00:44;7.97;;;5.72;;
75379;SDS011;65641;44.714;37.756;2023-02-01T01:01:49;8.20;;;6.43;;
75379;SDS011;65641;44.714;37.756;2023-02-01T01:02:52;7.03;;;5.30;;
75379;SDS011;65641;44.714;37.756;2023-02-01T01:03:56;8.88;;;6.25;;
75379;SDS011;65641;44.714;37.756;2023-02-01T01:05:01;7.97;;;6.57;;
75379;SDS011;65641;44.714;37.756;2023-02-01T01:06:05;8.30;;;6.10;;
75379;SDS011;65641;44.714;37.756;2023-02-01T01:07:13;7.35;;;5.13;;
75379;SDS011;65641;44.714;37.756;2023-02-01T01:08:16;9.60;;;6.03;;
75379;SDS011;65641;44.714;37.756;2023-02-01T01:09:19;8.60;;;4.18;;
75379;SDS011;65641;44.714;37.756;2023-02-01T01:10:22;8.32;;;5.25;;
75379;SDS011;65641;44.714;37.756;2023-02-01T01:11:27;8.18;;;5.28;;
75379;SDS011;65641;44.714;37.756;2023-02-01T01:12:32;7.78;;;5.57;;
75379;SDS011;65641;44.714;37.756;2023-02-01T01:13:35;7.97;;;5.65;;
75379;SDS011;65641;44.714;37.756;2023-02-01T01:14:38;7.60;;;3.97;;
75379;SDS011;65641;44.714;37.756;2023-02-01T01:15:42;8.10;;;4.25;;
75379;SDS011;65641;44.714;37.756;2023-02-01T01:16:45;6.65;;;4.32;;
75379;SDS011;65641;44.714;37.756;2023-02-01T01:17:50;7.32;;;6.28;;
75379;SDS011;65641;44.714;37.756;2023-02-01T01:18:53;7.93;;;5.30;;
75379;SDS011;65641;44.714;37.756;2023-02-01T01:19:57;7.78;;;5.15;;
75379;SDS011;65641;44.714;37.756;2023-02-01T01:21:01;7.88;;;4.97;;
75379;SDS011;65641;44.714;37.756;2023-02-01T01:22:06;7.53;;;5.10;;
75379;SDS011;65641;44.714;37.756;2023-02-01T01:23:09;9.10;;;4.53;;
75379;SDS011;65641;44.714;37.756;2023-02-01T01:24:12;6.82;;;5.28;;
75379;SDS011;65641;44.714;37.756;2023-02-01T01:25:15;7.13;;;4.88;;
75379;SDS011;65641;44.714;37.756;2023-02-01T01:26:20;7.95;;;5.25;;
75379;SDS011;65641;44.714;37.756;2023-02-01T01:27:25;8.98;;;5.55;;
75379;SDS011;65641;44.714;37.756;2023-02-01T01:28:28;7.63;;;5.78;;
75379;SDS011;65641;44.714;37.756;2023-02-01T01:29:31;7.57;;;6.43;;
75379;SDS011;65641;44.714;37.756;2023-02-01T01:30:34;7.90;;;3.95;;
75379;SDS011;65641;44.714;37.756;2023-02-01T01:31:37;6.72;;;4.32;;
75379;SDS011;65641;44.714;37.756;2023-02-01T01:32:42;8.10;;;4.28;;
75379;SDS011;65641;44.714;37.756;2023-02-01T01:33:52;7.55;;;5.78;;
75379;SDS011;65641;44.714;37.756;2023-02-01T01:34:56;7.63;;;4.07;;
75379;SDS011;65641;44.714;37.756;2023-02-01T01:35:59;8.02;;;5.25;;
75379;SDS011;65641;44.714;37.756;2023-02-01T01:37:02;9.25;;;6.13;;
75379;SDS011;65641;44.714;37.756;2023-02-01T01:38:05;7.30;;;5.07;;
75379;SDS011;65641;44.714;37.756;2023-02-01T01:39:08;7.57;;;5.30;;
75379;SDS011;65641;44.714;37.756;2023-02-01T01:40:14;7.43;;;5.55;;
75379;SDS011;65641;44.714;37.756;2023-02-01T01:41:19;7.43;;;5.47;;
75379;SDS011;65641;44.714;37.756;2023-02-01T01:42:27;7.05;;;5.10;;
75379;SDS011;65641;44.714;37.756;2023-02-01T01:45:07;7.88;;;5.38;;
75379;SDS011;65641;44.714;37.756;2023-02-01T01:46:34;6.65;;;5.35;;
75379;SDS011;65641;44.714;37.756;2023-02-01T01:47:44;7.97;;;5.63;;
75379;SDS011;65641;44.714;37.756;2023-02-01T01:49:05;8.57;;;5.60;;
75379;SDS011;65641;44.714;37.756;2023-02-01T01:50:13;7.97;;;5.25;;
75379;SDS011;65641;44.714;37.756;2023-02-01T01:51:23;6.55;;;3.92;;
75379;SDS011;65641;44.714;37.756;2023-02-01T01:52:28;7.95;;;5.60;;
75379;SDS011;65641;44.714;37.756;2023-02-01T01:53:33;7.60;;;5.50;;
75379;SDS011;65641;44.714;37.756;2023-02-01T01:54:45;7.78;;;5.18;;
75379;SDS011;65641;44.714;37.756;2023-02-01T01:55:51;8.13;;;5.07;;
75379;SDS011;65641;44.714;37.756;2023-02-01T01:56:57;7.40;;;3.80;;
75379;SDS011;65641;44.714;37.756;2023-02-01T01:58:06;6.82;;;4.88;;
75379;SDS011;65641;44.714;37.756;2023-02-01T01:59:14;7.32;;;4.30;;
75379;SDS011;65641;44.714;37.756;2023-02-01T02:00:18;7.20;;;5.18;;
75379;SDS011;65641;44.714;37.756;2023-02-01T02:01:26;5.78;;;3.42;;
75379;SDS011;65641;44.714;37.756;2023-02-01T02:02:30;7.20;;;4.95;;
75379;SDS011;65641;44.714;37.756;2023-02-01T02:03:35;6.63;;;5.07;;
75379;SDS011;65641;44.714;37.756;2023-02-01T02:04:44;7.28;;;4.97;;
75379;SDS011;65641;44.714;37.756;2023-02-01T02:05:49;7.00;;;5.07;;
75379;SDS011;65641;44.714;37.756;2023-02-01T02:06:59;6.25;;;3.50;;
75379;SDS011;65641;44.714;37.756;2023-02-01T02:08:06;7.88;;;5.18;;
75379;SDS011;65641;44.714;37.756;2023-02-01T02:09:09;7.90;;;5.18;;
75379;SDS011;65641;44.714;37.756;2023-02-01T02:10:12;5.85;;;3.25;;
75379;SDS011;65641;44.714;37.756;2023-02-01T02:11:17;7.20;;;5.32;;
75379;SDS011;65641;44.714;37.756;2023-02-01T02:12:20;6.28;;;5.18;;
75379;SDS011;65641;44.714;37.756;2023-02-01T02:13:23;7.50;;;3.90;;
75379;SDS011;65641;44.714;37.756;2023-02-01T02:14:26;7.43;;;5.15;;
75379;SDS011;65641;44.714;37.756;2023-02-01T02:16:00;6.35;;;3.45;;
75379;SDS011;65641;44.714;37.756;2023-02-01T02:18:46;7.82;;;5.43;;
75379;SDS011;65641;44.714;37.756;2023-02-01T02:20:19;7.57;;;3.97;;
75379;SDS011;65641;44.714;37.756;2023-02-01T02:29:29;7.05;;;4.97;;
75379;SDS011;65641;44.714;37.756;2023-02-01T02:34:57;6.95;;;4.22;;
75379;SDS011;65641;44.714;37.756;2023-02-01T02:38:47;7.70;;;5.70;;
75379;SDS011;65641;44.714;37.756;2023-02-01T02:40:07;7.13;;;5.43;;
75379;SDS011;65641;44.714;37.756;2023-02-01T02:44:49;7.32;;;5.00;;
75379;SDS011;65641;44.714;37.756;2023-02-01T02:47:52;7.00;;;4.57;;
75379;SDS011;65641;44.714;37.756;2023-02-01T02:49:00;5.53;;;3.17;;
75379;SDS011;65641;44.714;37.756;2023-02-01T02:52:09;6.40;;;3.45;;
75379;SDS011;65641;44.714;37.756;2023-02-01T02:55:20;6.65;;;4.47;;
75379;SDS011;65641;44.714;37.756;2023-02-01T02:56:24;6.97;;;4.70;;
75379;SDS011;65641;44.714;37.756;2023-02-01T02:57:47;7.75;;;5.20;;
75379;SDS011;65641;44.714;37.756;2023-02-01T02:59:09;7.50;;;4.40;;
75379;SDS011;65641;44.714;37.756;2023-02-01T03:00:34;4.78;;;2.78;;
75379;SDS011;65641;44.714;37.756;2023-02-01T03:01:57;6.20;;;4.20;;
75379;SDS011;65641;44.714;37.756;2023-02-01T03:03:19;6.43;;;4.78;;
75379;SDS011;65641;44.714;37.756;2023-02-01T03:04:41;6.07;;;3.15;;
75379;SDS011;65641;44.714;37.756;2023-02-01T03:05:46;5.60;;;4.10;;
75379;SDS011;65641;44.714;37.756;2023-02-01T03:06:51;6.07;;;3.05;;
75379;SDS011;65641;44.714;37.756;2023-02-01T03:07:57;6.15;;;4.82;;
75379;SDS011;65641;44.714;37.756;2023-02-01T03:09:16;7.38;;;5.10;;
75379;SDS011;65641;44.714;37.756;2023-02-01T03:11:37;5.32;;;4.63;;
75379;SDS011;65641;44.714;37.756;2023-02-01T03:14:30;5.93;;;3.55;;
75379;SDS011;65641;44.714;37.756;2023-02-01T03:16:58;5.35;;;2.85;;
75379;SDS011;65641;44.714;37.756;2023-02-01T03:18:22;4.68;;;3.58;;
75379;SDS011;65641;44.714;37.756;2023-02-01T03:19:37;6.70;;;4.03;;
75379;SDS011;65641;44.714;37.756;2023-02-01T03:20:49;6.07;;;4.43;;
75379;SDS011;65641;44.714;37.756;2023-02-01T03:21:57;6.93;;;4.78;;
75379;SDS011;65641;44.714;37.756;2023-02-01T03:23:06;6.00;;;3.65;;
75379;SDS011;65641;44.714;37.756;2023-02-01T03:24:21;5.72;;;3.33;;
75379;SDS011;65641;44.714;37.756;2023-02-01T03:26:41;4.82;;;2.88;;
75379;SDS011;65641;44.714;37.756;2023-02-01T03:29:07;5.32;;;3.83;;
75379;SDS011;65641;44.714;37.756;2023-02-01T03:30:27;6.28;;;2.65;;
75379;SDS011;65641;44.714;37.756;2023-02-01T03:31:35;4.65;;;2.50;;
75379;SDS011;65641;44.714;37.756;2023-02-01T03:32:39;5.53;;;3.58;;
75379;SDS011;65641;44.714;37.756;2023-02-01T03:34:07;4.60;;;3.40;;
75379;SDS011;65641;44.714;37.756;2023-02-01T03:35:11;5.75;;;2.92;;
75379;SDS011;65641;44.714;37.756;2023-02-01T03:36:19;5.30;;;3.83;;
75379;SDS011;65641;44.714;37.756;2023-02-01T03:37:37;4.80;;;4.13;;
75379;SDS011;65641;44.714;37.756;2023-02-01T03:40:18;4.65;;;2.45;;
75379;SDS011;65641;44.714;37.756;2023-02-01T03:42:38;5.03;;;3.85;;
75379;SDS011;65641;44.714;37.756;2023-02-01T03:45:26;4.60;;;2.30;;
75379;SDS011;65641;44.714;37.756;2023-02-01T03:46:41;6.10;;;4.00;;
75379;SDS011;65641;44.714;37.756;2023-02-01T03:48:05;4.88;;;4.38;;
75379;SDS011;65641;44.714;37.756;2023-02-01T03:49:11;5.35;;;3.58;;
75379;SDS011;65641;44.714;37.756;2023-02-01T03:50:20;4.63;;;3.33;;
75379;SDS011;65641;44.714;37.756;2023-02-01T03:51:27;4.60;;;2.53;;
75379;SDS011;65641;44.714;37.756;2023-02-01T03:52:38;4.55;;;3.78;;
75379;SDS011;65641;44.714;37.756;2023-02-01T03:53:48;3.92;;;3.10;;
75379;SDS011;65641;44.714;37.756;2023-02-01T03:54:52;5.05;;;3.50;;
75379;SDS011;65641;44.714;37.756;2023-02-01T03:55:56;4.47;;;3.35;;
75379;SDS011;65641;44.714;37.756;2023-02-01T03:57:01;4.03;;;3.15;;
75379;SDS011;65641;44.714;37.756;2023-02-01T03:58:11;7.03;;;4.18;;
75379;SDS011;65641;44.714;37.756;2023-02-01T03:59:16;4.72;;;3.63;;
75379;SDS011;65641;44.714;37.756;2023-02-01T04:00:20;5.65;;;3.30;;
75379;SDS011;65641;44.714;37.756;2023-02-01T04:01:26;5.38;;;3.15;;
75379;SDS011;65641;44.714;37.756;2023-02-01T04:02:31;5.10;;;3.80;;
75379;SDS011;65641;44.714;37.756;2023-02-01T04:03:34;3.83;;;2.97;;
75379;SDS011;65641;44.714;37.756;2023-02-01T04:04:37;4.97;;;3.75;;
75379;SDS011;65641;44.714;37.756;2023-02-01T04:05:40;4.22;;;3.40;;
75379;SDS011;65641;44.714;37.756;2023-02-01T04:06:44;4.63;;;3.53;;
75379;SDS011;65641;44.714;37.756;2023-02-01T04:07:48;4.07;;;3.67;;
75379;SDS011;65641;44.714;37.756;2023-02-01T04:08:51;4.20;;;3.60;;
75379;SDS011;65641;44.714;37.756;2023-02-01T04:09:54;4.22;;;3.10;;
75379;SDS011;65641;44.714;37.756;2023-02-01T04:10:57;4.63;;;2.40;;
75379;SDS011;65641;44.714;37.756;2023-02-01T04:12:00;4.30;;;3.20;;
75379;SDS011;65641;44.714;37.756;2023-02-01T04:13:04;4.28;;;2.92;;
75379;SDS011;65641;44.714;37.756;2023-02-01T04:14:07;4.10;;;3.17;;
75379;SDS011;65641;44.714;37.756;2023-02-01T04:15:10;4.65;;;3.30;;
75379;SDS011;65641;44.714;37.756;2023-02-01T04:16:13;3.63;;;2.20;;
75379;SDS011;65641;44.714;37.756;2023-02-01T04:17:16;3.83;;;3.40;;
75379;SDS011;65641;44.714;37.756;2023-02-01T04:18:19;3.35;;;2.90;;
75379;SDS011;65641;44.714;37.756;2023-02-01T04:19:22;3.45;;;1.98;;
75379;SDS011;65641;44.714;37.756;2023-02-01T04:20:25;3.30;;;1.60;;
75379;SDS011;65641;44.714;37.756;2023-02-01T04:21:28;3.92;;;3.55;;
75379;SDS011;65641;44.714;37.756;2023-02-01T04:22:31;2.95;;;1.48;;
75379;SDS011;65641;44.714;37.756;2023-02-01T04:23:36;3.65;;;2.75;;
75379;SDS011;65641;44.714;37.756;2023-02-01T04:24:39;4.13;;;2.20;;
75379;SDS011;65641;44.714;37.756;2023-02-01T04:25:42;3.83;;;1.85;;
75379;SDS011;65641;44.714;37.756;2023-02-01T04:26:45;4.35;;;3.35;;
75379;SDS011;65641;44.714;37.756;2023-02-01T04:27:48;4.15;;;1.65;;
75379;SDS011;65641;44.714;37.756;2023-02-01T04:28:51;4.45;;;2.85;;
75379;SDS011;65641;44.714;37.756;2023-02-01T04:29:54;3.72;;;3.30;;
75379;SDS011;65641;44.714;37.756;2023-02-01T04:30:59;4.47;;;3.20;;
75379;SDS011;65641;44.714;37.756;2023-02-01T04:32:02;3.40;;;1.42;;
75379;SDS011;65641;44.714;37.756;2023-02-01T04:33:05;3.38;;;2.30;;
75379;SDS011;65641;44.714;37.756;2023-02-01T04:34:08;4.22;;;2.38;;
75379;SDS011;65641;44.714;37.756;2023-02-01T04:35:11;3.47;;;2.72;;
75379;SDS011;65641;44.714;37.756;2023-02-01T04:36:14;4.50;;;3.10;;
75379;SDS011;65641;44.714;37.756;2023-02-01T04:37:17;5.97;;;1.90;;
75379;SDS011;65641;44.714;37.756;2023-02-01T04:38:20;2.90;;;2.33;;
75379;SDS011;65641;44.714;37.756;2023-02-01T04:39:23;3.72;;;3.33;;
75379;SDS011;65641;44.714;37.756;2023-02-01T04:40:26;4.15;;;2.67;;
75379;SDS011;65641;44.714;37.756;2023-02-01T04:41:29;3.28;;;2.95;;
75379;SDS011;65641;44.714;37.756;2023-02-01T04:42:32;3.33;;;2.88;;
75379;SDS011;65641;44.714;37.756;2023-02-01T04:43:35;2.63;;;1.83;;
75379;SDS011;65641;44.714;37.756;2023-02-01T04:44:38;3.20;;;2.90;;
75379;SDS011;65641;44.714;37.756;2023-02-01T04:45:47;3.72;;;2.80;;
75379;SDS011;65641;44.714;37.756;2023-02-01T04:46:51;2.20;;;1.33;;
75379;SDS011;65641;44.714;37.756;2023-02-01T04:47:54;3.28;;;2.60;;
75379;SDS011;65641;44.714;37.756;2023-02-01T04:48:57;3.05;;;2.75;;
75379;SDS011;65641;44.714;37.756;2023-02-01T04:50:00;3.35;;;3.05;;
75379;SDS011;65641;44.714;37.756;2023-02-01T04:51:03;2.78;;;2.17;;
75379;SDS011;65641;44.714;37.756;2023-02-01T04:52:07;2.53;;;2.13;;
75379;SDS011;65641;44.714;37.756;2023-02-01T04:53:10;2.80;;;1.42;;
75379;SDS011;65641;44.714;37.756;2023-02-01T04:54:13;2.95;;;2.30;;
75379;SDS011;65641;44.714;37.756;2023-02-01T04:55:16;2.63;;;1.27;;
75379;SDS011;65641;44.714;37.756;2023-02-01T04:56:19;2.83;;;2.53;;
75379;SDS011;65641;44.714;37.756;2023-02-01T04:57:22;2.20;;;1.45;;
75379;SDS011;65641;44.714;37.756;2023-02-01T04:58:25;2.63;;;2.35;;
75379;SDS011;65641;44.714;37.756;2023-02-01T04:59:28;3.00;;;2.50;;
75379;SDS011;65641;44.714;37.756;2023-02-01T05:00:31;2.05;;;1.67;;
75379;SDS011;65641;44.714;37.756;2023-02-01T05:01:34;3.38;;;2.75;;
75379;SDS011;65641;44.714;37.756;2023-02-01T05:02:37;4.28;;;2.80;;
75379;SDS011;65641;44.714;37.756;2023-02-01T05:03:41;2.60;;;1.98;;
75379;SDS011;65641;44.714;37.756;2023-02-01T05:04:44;4.72;;;1.48;;
75379;SDS011;65641;44.714;37.756;2023-02-01T05:05:47;2.90;;;2.50;;
75379;SDS011;65641;44.714;37.756;2023-02-01T05:06:51;3.55;;;2.70;;
75379;SDS011;65641;44.714;37.756;2023-02-01T05:07:54;3.55;;;2.75;;
75379;SDS011;65641;44.714;37.756;2023-02-01T05:08:56;3.97;;;2.88;;
75379;SDS011;65641;44.714;37.756;2023-02-01T05:09:59;3.22;;;1.35;;
75379;SDS011;65641;44.714;37.756;2023-02-01T05:11:04;3.45;;;2.42;;
75379;SDS011;65641;44.714;37.756;2023-02-01T05:12:08;3.75;;;2.83;;
75379;SDS011;65641;44.714;37.756;2023-02-01T05:13:30;3.28;;;1.42;;
75379;SDS011;65641;44.714;37.756;2023-02-01T05:14:51;5.32;;;1.70;;
75379;SDS011;65641;44.714;37.756;2023-02-01T05:15:54;5.53;;;3.15;;
75379;SDS011;65641;44.714;37.756;2023-02-01T05:16:59;4.38;;;2.72;;
75379;SDS011;65641;44.714;37.756;2023-02-01T05:18:04;5.72;;;2.85;;
75379;SDS011;65641;44.714;37.756;2023-02-01T05:19:07;2.85;;;1.42;;
75379;SDS011;65641;44.714;37.756;2023-02-01T05:20:10;2.85;;;1.55;;
75379;SDS011;65641;44.714;37.756;2023-02-01T05:21:13;4.50;;;2.83;;
75379;SDS011;65641;44.714;37.756;2023-02-01T05:22:42;3.33;;;2.15;;
75379;SDS011;65641;44.714;37.756;2023-02-01T05:23:45;2.60;;;1.17;;
75379;SDS011;65641;44.714;37.756;2023-02-01T05:25:06;3.33;;;2.88;;
75379;SDS011;65641;44.714;37.756;2023-02-01T05:26:12;3.22;;;2.45;;
75379;SDS011;65641;44.714;37.756;2023-02-01T05:27:15;4.55;;;3.20;;
75379;SDS011;65641;44.714;37.756;2023-02-01T05:28:18;2.72;;;1.40;;
75379;SDS011;65641;44.714;37.756;2023-02-01T05:29:21;2.40;;;1.27;;
75379;SDS011;65641;44.714;37.756;2023-02-01T05:30:24;2.90;;;2.33;;
75379;SDS011;65641;44.714;37.756;2023-02-01T05:31:27;3.78;;;2.88;;
75379;SDS011;65641;44.714;37.756;2023-02-01T05:32:30;3.85;;;1.45;;
75379;SDS011;65641;44.714;37.756;2023-02-01T05:33:33;2.72;;;1.42;;
75379;SDS011;65641;44.714;37.756;2023-02-01T05:34:36;2.83;;;1.67;;
75379;SDS011;65641;44.714;37.756;2023-02-01T05:35:39;3.03;;;2.67;;
75379;SDS011;65641;44.714;37.756;2023-02-01T05:36:44;3.28;;;2.28;;
75379;SDS011;65641;44.714;37.756;2023-02-01T05:37:47;2.50;;;1.40;;
75379;SDS011;65641;44.714;37.756;2023-02-01T05:38:51;2.80;;;1.15;;
75379;SDS011;65641;44.714;37.756;2023-02-01T05:39:56;2.67;;;2.45;;
75379;SDS011;65641;44.714;37.756;2023-02-01T05:40:59;3.13;;;1.35;;
75379;SDS011;65641;44.714;37.756;2023-02-01T05:42:04;3.17;;;2.20;;
75379;SDS011;65641;44.714;37.756;2023-02-01T05:43:07;3.15;;;2.63;;
75379;SDS011;65641;44.714;37.756;2023-02-01T05:44:10;2.95;;;1.63;;
75379;SDS011;65641;44.714;37.756;2023-02-01T05:45:16;3.83;;;2.50;;
75379;SDS011;65641;44.714;37.756;2023-02-01T05:46:19;3.40;;;2.80;;
75379;SDS011;65641;44.714;37.756;2023-02-01T05:47:22;3.10;;;2.30;;
75379;SDS011;65641;44.714;37.756;2023-02-01T05:48:25;2.50;;;2.05;;
75379;SDS011;65641;44.714;37.756;2023-02-01T05:49:30;2.80;;;2.58;;
75379;SDS011;65641;44.714;37.756;2023-02-01T05:50:33;2.95;;;2.65;;
75379;SDS011;65641;44.714;37.756;2023-02-01T05:51:43;2.40;;;2.20;;
75379;SDS011;65641;44.714;37.756;2023-02-01T05:52:46;2.97;;;1.40;;
75379;SDS011;65641;44.714;37.756;2023-02-01T05:53:49;3.10;;;2.55;;
75379;SDS011;65641;44.714;37.756;2023-02-01T05:54:52;2.58;;;1.33;;
75379;SDS011;65641;44.714;37.756;2023-02-01T05:55:55;2.78;;;1.65;;
75379;SDS011;65641;44.714;37.756;2023-02-01T05:56:58;2.70;;;1.40;;
75379;SDS011;65641;44.714;37.756;2023-02-01T05:58:01;3.40;;;2.60;;
75379;SDS011;65641;44.714;37.756;2023-02-01T05:59:04;3.33;;;2.47;;
75379;SDS011;65641;44.714;37.756;2023-02-01T06:00:07;3.22;;;2.35;;
75379;SDS011;65641;44.714;37.756;2023-02-01T06:01:16;3.03;;;2.13;;
75379;SDS011;65641;44.714;37.756;2023-02-01T06:02:18;2.60;;;2.25;;
75379;SDS011;65641;44.714;37.756;2023-02-01T06:03:22;3.00;;;1.40;;
75379;SDS011;65641;44.714;37.756;2023-02-01T06:04:25;2.45;;;1.30;;
75379;SDS011;65641;44.714;37.756;2023-02-01T06:05:28;2.05;;;1.23;;
75379;SDS011;65641;44.714;37.756;2023-02-01T06:06:31;3.35;;;2.80;;
75379;SDS011;65641;44.714;37.756;2023-02-01T06:07:34;2.50;;;1.38;;
75379;SDS011;65641;44.714;37.756;2023-02-01T06:08:37;3.35;;;2.92;;
75379;SDS011;65641;44.714;37.756;2023-02-01T06:09:42;2.40;;;1.25;;
75379;SDS011;65641;44.714;37.756;2023-02-01T06:10:45;3.38;;;2.58;;
75379;SDS011;65641;44.714;37.756;2023-02-01T06:11:48;2.15;;;1.08;;
75379;SDS011;65641;44.714;37.756;2023-02-01T06:12:51;2.42;;;1.30;;
75379;SDS011;65641;44.714;37.756;2023-02-01T06:13:56;3.35;;;1.52;;
75379;SDS011;65641;44.714;37.756;2023-02-01T06:14:59;2.70;;;2.10;;
75379;SDS011;65641;44.714;37.756;2023-02-01T06:16:02;3.08;;;1.70;;
75379;SDS011;65641;44.714;37.756;2023-02-01T06:17:05;3.58;;;2.40;;
75379;SDS011;65641;44.714;37.756;2023-02-01T06:18:09;3.38;;;3.08;;
75379;SDS011;65641;44.714;37.756;2023-02-01T06:19:12;3.20;;;1.58;;
75379;SDS011;65641;44.714;37.756;2023-02-01T06:20:15;3.20;;;1.67;;
75379;SDS011;65641;44.714;37.756;2023-02-01T06:21:22;3.97;;;2.72;;
75379;SDS011;65641;44.714;37.756;2023-02-01T06:22:27;2.78;;;1.48;;
75379;SDS011;65641;44.714;37.756;2023-02-01T06:23:30;2.30;;;1.55;;
75379;SDS011;65641;44.714;37.756;2023-02-01T06:24:33;2.97;;;1.40;;
75379;SDS011;65641;44.714;37.756;2023-02-01T06:25:36;3.35;;;1.70;;
75379;SDS011;65641;44.714;37.756;2023-02-01T06:26:42;3.40;;;1.42;;
75379;SDS011;65641;44.714;37.756;2023-02-01T06:27:47;2.08;;;1.00;;
75379;SDS011;65641;44.714;37.756;2023-02-01T06:28:51;2.38;;;1.10;;
75379;SDS011;65641;44.714;37.756;2023-02-01T06:30:14;3.17;;;2.65;;
75379;SDS011;65641;44.714;37.756;2023-02-01T06:31:26;2.55;;;1.42;;
75379;SDS011;65641;44.714;37.756;2023-02-01T06:32:39;3.10;;;1.42;;
75379;SDS011;65641;44.714;37.756;2023-02-01T06:33:43;3.17;;;1.35;;
75379;SDS011;65641;44.714;37.756;2023-02-01T06:34:52;2.45;;;1.33;;
75379;SDS011;65641;44.714;37.756;2023-02-01T06:36:02;2.50;;;1.25;;
75379;SDS011;65641;44.714;37.756;2023-02-01T06:37:12;4.13;;;2.08;;
75379;SDS011;65641;44.714;37.756;2023-02-01T06:38:16;2.83;;;1.52;;
75379;SDS011;65641;44.714;37.756;2023-02-01T06:39:23;3.10;;;2.75;;
75379;SDS011;65641;44.714;37.756;2023-02-01T06:40:29;2.80;;;1.35;;
75379;SDS011;65641;44.714;37.756;2023-02-01T06:41:33;2.80;;;1.50;;
75379;SDS011;65641;44.714;37.756;2023-02-01T06:42:37;3.03;;;1.65;;
75379;SDS011;65641;44.714;37.756;2023-02-01T06:43:40;2.53;;;1.48;;
75379;SDS011;65641;44.714;37.756;2023-02-01T06:44:43;2.60;;;1.55;;
75379;SDS011;65641;44.714;37.756;2023-02-01T06:45:47;3.33;;;1.60;;
75379;SDS011;65641;44.714;37.756;2023-02-01T06:46:50;3.08;;;1.83;;
75379;SDS011;65641;44.714;37.756;2023-02-01T06:47:53;3.67;;;1.75;;
75379;SDS011;65641;44.714;37.756;2023-02-01T06:48:56;2.55;;;1.80;;
75379;SDS011;65641;44.714;37.756;2023-02-01T06:49:59;2.78;;;1.60;;
75379;SDS011;65641;44.714;37.756;2023-02-01T06:51:04;2.97;;;1.83;;
75379;SDS011;65641;44.714;37.756;2023-02-01T06:52:07;4.68;;;1.60;;
75379;SDS011;65641;44.714;37.756;2023-02-01T06:53:10;3.35;;;1.83;;
75379;SDS011;65641;44.714;37.756;2023-02-01T06:54:13;3.50;;;1.70;;
75379;SDS011;65641;44.714;37.756;2023-02-01T06:55:16;4.20;;;2.13;;
75379;SDS011;65641;44.714;37.756;2023-02-01T06:56:19;4.05;;;2.08;;
75379;SDS011;65641;44.714;37.756;2023-02-01T06:57:22;2.50;;;1.58;;
75379;SDS011;65641;44.714;37.756;2023-02-01T06:58:29;3.00;;;1.77;;
75379;SDS011;65641;44.714;37.756;2023-02-01T06:59:35;3.67;;;1.80;;
75379;SDS011;65641;44.714;37.756;2023-02-01T07:00:38;3.70;;;1.95;;
75379;SDS011;65641;44.714;37.756;2023-02-01T07:01:41;3.33;;;2.22;;
75379;SDS011;65641;44.714;37.756;2023-02-01T07:02:44;3.60;;;1.98;;
75379;SDS011;65641;44.714;37.756;2023-02-01T07:03:47;3.63;;;1.85;;
75379;SDS011;65641;44.714;37.756;2023-02-01T07:04:52;4.07;;;2.10;;
75379;SDS011;65641;44.714;37.756;2023-02-01T07:05:55;4.05;;;1.85;;
75379;SDS011;65641;44.714;37.756;2023-02-01T07:07:01;3.10;;;1.65;;
75379;SDS011;65641;44.714;37.756;2023-02-01T07:08:07;3.28;;;2.05;;
75379;SDS011;65641;44.714;37.756;2023-02-01T07:09:10;3.17;;;1.80;;
75379;SDS011;65641;44.714;37.756;2023-02-01T07:10:14;3.70;;;1.75;;